createdAt,value
2016-11-08T00:01:59.801Z,99547
2016-11-08T00:03:58.551Z,99543
2016-11-08T00:05:59.940Z,99548
2016-11-08T00:07:58.540Z,99548
2016-11-08T00:09:58.613Z,99549
2016-11-08T00:11:59.960Z,99550
2016-11-08T00:14:00.020Z,99551
2016-11-08T00:16:00.055Z,99552
2016-11-08T00:17:58.763Z,99556
2016-11-08T00:19:58.772Z,99552
2016-11-08T00:21:58.871Z,99550
2016-11-08T00:23:58.888Z,99550
2016-11-08T00:26:00.339Z,99553
2016-11-08T00:27:58.999Z,99552
2016-11-08T00:30:00.340Z,99554
2016-11-08T00:32:00.440Z,99556
2016-11-08T00:34:00.520Z,99555
2016-11-08T00:35:59.204Z,99559
2016-11-08T00:37:59.227Z,99559
2016-11-08T00:40:00.564Z,99555
2016-11-08T00:42:00.564Z,99562
2016-11-08T00:44:00.579Z,99561
2016-11-08T00:46:00.625Z,99566
2016-11-08T00:47:59.271Z,99562
2016-11-08T00:50:00.592Z,99563
2016-11-08T00:51:59.338Z,99566
2016-11-08T00:53:59.361Z,99559
2016-11-08T00:55:59.448Z,99556
2016-11-08T00:58:00.820Z,99556
2016-11-08T00:59:59.533Z,99560
2016-11-08T01:02:00.912Z,99552
2016-11-08T01:04:01.487Z,99556
2016-11-08T01:06:01.012Z,99560
2016-11-08T01:07:59.669Z,99556
2016-11-08T01:09:59.762Z,99555
2016-11-08T01:11:59.822Z,99554
2016-11-08T01:13:59.900Z,99552
2016-11-08T01:15:59.933Z,99553
2016-11-08T01:18:01.308Z,99553
2016-11-08T01:20:00.029Z,99553
2016-11-08T01:22:01.423Z,99551
2016-11-08T01:24:01.470Z,99550
2016-11-08T01:26:00.157Z,99550
2016-11-08T01:28:01.621Z,99549
2016-11-08T01:30:01.699Z,99542
2016-11-08T01:32:01.750Z,99543
2016-11-08T01:34:00.382Z,99543
2016-11-08T01:36:01.851Z,99543
2016-11-08T01:38:00.517Z,99542
2016-11-08T01:40:01.946Z,99547
2016-11-08T01:42:01.991Z,99541
2016-11-08T01:44:00.656Z,99541
2016-11-08T01:46:01.998Z,99542
2016-11-08T01:48:00.673Z,99536
2016-11-08T01:50:00.677Z,99544
2016-11-08T01:52:00.823Z,99543
2016-11-08T01:54:02.149Z,99539
2016-11-08T01:56:02.204Z,99536
2016-11-08T01:58:02.304Z,99535
2016-11-08T02:00:02.333Z,99539
2016-11-08T02:02:02.315Z,99538
2016-11-08T02:04:02.407Z,99536
2016-11-08T02:06:01.016Z,99529
2016-11-08T02:08:01.051Z,99532
2016-11-08T02:10:02.546Z,99531
2016-11-08T02:12:01.155Z,99538
2016-11-08T02:14:02.592Z,99542
2016-11-08T02:16:02.620Z,99540
2016-11-08T02:18:02.690Z,99539
2016-11-08T02:20:01.344Z,99541
2016-11-08T02:22:02.810Z,99539
2016-11-08T02:24:02.781Z,99536
2016-11-08T02:26:02.901Z,99536
2016-11-08T02:28:01.673Z,99533
2016-11-08T02:30:01.642Z,99536
2016-11-08T02:32:03.041Z,99533
2016-11-08T02:34:01.694Z,99536
2016-11-08T02:36:01.747Z,99537
2016-11-08T02:38:03.145Z,99541
2016-11-08T02:40:01.796Z,99537
2016-11-08T02:42:01.904Z,99539
2016-11-08T02:44:01.885Z,99535
2016-11-08T02:46:03.303Z,99538
2016-11-08T02:48:03.352Z,99533
2016-11-08T02:50:02.029Z,99533
2016-11-08T02:52:02.117Z,99537
2016-11-08T02:54:03.519Z,99540
2016-11-08T02:56:02.211Z,99539
2016-11-08T02:58:03.718Z,99542
2016-11-08T03:00:02.382Z,99538
2016-11-08T03:02:02.437Z,99538
2016-11-08T03:04:03.820Z,99543
2016-11-08T03:06:03.916Z,99542
2016-11-08T03:08:02.693Z,99537
2016-11-08T03:10:04.044Z,99542
2016-11-08T03:12:04.257Z,99538
2016-11-08T03:14:02.878Z,99540
2016-11-08T03:16:04.243Z,99543
2016-11-08T03:18:04.274Z,99542
2016-11-08T03:20:02.982Z,99543
2016-11-08T03:22:04.320Z,99545
2016-11-08T03:24:03.109Z,99547
2016-11-08T03:26:04.327Z,99550
2016-11-08T03:28:03.177Z,99544
2016-11-08T03:30:03.162Z,99546
2016-11-08T03:32:03.104Z,99548
2016-11-08T03:34:03.158Z,99546
2016-11-08T03:36:04.586Z,99552
2016-11-08T03:38:04.634Z,99554
2016-11-08T03:40:04.764Z,99550
2016-11-08T03:42:03.403Z,99552
2016-11-08T03:44:04.801Z,99554
2016-11-08T03:46:05.215Z,99555
2016-11-08T03:48:03.660Z,99557
2016-11-08T03:50:03.558Z,99557
2016-11-08T03:52:05.039Z,99553
2016-11-08T03:54:05.074Z,99554
2016-11-08T03:56:05.093Z,99554
2016-11-08T03:58:03.817Z,99551
2016-11-08T04:00:05.184Z,99554
2016-11-08T04:02:05.247Z,99555
2016-11-08T04:04:03.935Z,99561
2016-11-08T04:06:05.434Z,99557
2016-11-08T04:08:05.533Z,99559
2016-11-08T04:10:05.478Z,99558
2016-11-08T04:12:05.546Z,99557
2016-11-08T04:14:04.216Z,99560
2016-11-08T04:16:05.618Z,99559
2016-11-08T04:18:05.672Z,99558
2016-11-08T04:20:05.763Z,99559
2016-11-08T04:22:05.730Z,99558
2016-11-08T04:24:05.780Z,99557
2016-11-08T04:26:05.851Z,99557
2016-11-08T04:28:04.578Z,99557
2016-11-08T04:30:05.851Z,99560
2016-11-08T04:32:04.523Z,99555
2016-11-08T04:34:05.999Z,99557
2016-11-08T04:36:06.055Z,99554
2016-11-08T04:38:06.032Z,99550
2016-11-08T04:40:04.721Z,99550
2016-11-08T04:42:06.136Z,99551
2016-11-08T04:44:04.800Z,99550
2016-11-08T04:46:04.832Z,99548
2016-11-08T04:48:06.253Z,99548
2016-11-08T04:50:04.974Z,99548
2016-11-08T04:52:05.019Z,99549
2016-11-08T04:54:06.326Z,99550
2016-11-08T04:56:05.023Z,99546
2016-11-08T04:58:05.087Z,99548
2016-11-08T05:00:05.226Z,99551
2016-11-08T05:02:06.651Z,99551
2016-11-08T05:04:06.710Z,99549
2016-11-08T05:06:05.306Z,99548
2016-11-08T05:08:06.775Z,99551
2016-11-08T05:10:06.785Z,99553
2016-11-08T05:12:06.900Z,99555
2016-11-08T05:14:05.520Z,99555
2016-11-08T05:16:05.690Z,99555
2016-11-08T05:18:05.616Z,99557
2016-11-08T05:20:05.694Z,99560
2016-11-08T05:22:07.192Z,99557
2016-11-08T05:24:05.862Z,99562
2016-11-08T05:26:07.265Z,99560
2016-11-08T05:28:07.241Z,99555
2016-11-08T05:30:07.285Z,99557
2016-11-08T05:32:07.294Z,99560
2016-11-08T05:34:05.990Z,99555
2016-11-08T05:36:06.111Z,99559
2016-11-08T05:38:06.175Z,99563
2016-11-08T05:40:06.257Z,99558
2016-11-08T05:42:06.232Z,99555
2016-11-08T05:44:06.251Z,99558
2016-11-08T05:46:06.339Z,99563
2016-11-08T05:48:07.799Z,99563
2016-11-08T05:50:08.770Z,99569
2016-11-08T05:52:07.842Z,99563
2016-11-08T05:54:06.535Z,99567
2016-11-08T05:56:09.235Z,99569
2016-11-08T05:58:06.665Z,99571
2016-11-08T06:00:08.074Z,99570
2016-11-08T06:02:06.823Z,99574
2016-11-08T06:04:06.874Z,99574
2016-11-08T06:06:08.247Z,99575
2016-11-08T06:08:07.001Z,99576
2016-11-08T06:10:08.455Z,99580
2016-11-08T06:12:08.452Z,99577
2016-11-08T06:14:07.132Z,99579
2016-11-08T06:16:08.616Z,99579
2016-11-08T06:18:07.228Z,99575
2016-11-08T06:20:07.266Z,99579
2016-11-08T06:22:08.734Z,99583
2016-11-08T06:24:07.352Z,99589
2016-11-08T06:26:07.462Z,99591
2016-11-08T06:28:07.516Z,99593
2016-11-08T06:30:08.890Z,99588
2016-11-08T06:32:08.995Z,99593
2016-11-08T06:34:07.654Z,99596
2016-11-08T06:36:08.992Z,99596
2016-11-08T06:38:07.682Z,99599
2016-11-08T06:40:09.123Z,99601
2016-11-08T06:42:09.105Z,99603
2016-11-08T06:44:07.847Z,99608
2016-11-08T06:46:07.893Z,99610
2016-11-08T06:48:09.231Z,99607
2016-11-08T06:50:07.935Z,99609
2016-11-08T06:52:09.349Z,99609
2016-11-08T06:54:08.019Z,99615
2016-11-08T06:56:09.534Z,99615
2016-11-08T06:58:09.506Z,99617
2016-11-08T07:00:08.816Z,99618
2016-11-08T07:02:09.507Z,99613
2016-11-08T07:04:09.739Z,99612
2016-11-08T07:06:09.681Z,99613
2016-11-08T07:08:08.388Z,99618
2016-11-08T07:10:09.815Z,99613
2016-11-08T07:12:08.490Z,99613
2016-11-08T07:14:09.913Z,99615
2016-11-08T07:16:09.878Z,99613
2016-11-08T07:18:09.963Z,99617
2016-11-08T07:20:09.978Z,99623
2016-11-08T07:22:10.055Z,99624
2016-11-08T07:24:08.699Z,99623
2016-11-08T07:26:09.371Z,99627
2016-11-08T07:28:08.844Z,99625
2016-11-08T07:30:08.857Z,99628
2016-11-08T07:32:08.845Z,99630
2016-11-08T07:34:08.927Z,99623
2016-11-08T07:36:09.024Z,99625
2016-11-08T07:38:10.392Z,99627
2016-11-08T07:40:11.209Z,99631
2016-11-08T07:42:11.500Z,99629
2016-11-08T07:44:10.526Z,99633
2016-11-08T07:46:10.509Z,99632
2016-11-08T07:48:09.224Z,99632
2016-11-08T07:50:09.311Z,99632
2016-11-08T07:52:09.420Z,99641
2016-11-08T07:54:10.748Z,99632
2016-11-08T07:56:10.750Z,99633
2016-11-08T07:58:11.399Z,99636
2016-11-08T08:00:10.802Z,99642
2016-11-08T08:02:09.522Z,99639
2016-11-08T08:04:10.885Z,99640
2016-11-08T08:06:10.320Z,99643
2016-11-08T08:08:10.937Z,99643
2016-11-08T08:10:11.057Z,99643
2016-11-08T08:12:11.778Z,99649
2016-11-08T08:14:11.157Z,99643
2016-11-08T08:16:10.048Z,99646
2016-11-08T08:18:12.155Z,99646
2016-11-08T08:20:11.309Z,99648
2016-11-08T08:22:11.996Z,99650
2016-11-08T08:24:10.679Z,99653
2016-11-08T08:26:10.882Z,99654
2016-11-08T08:28:10.217Z,99655
2016-11-08T08:30:11.934Z,99657
2016-11-08T08:32:10.280Z,99657
2016-11-08T08:34:13.037Z,99658
2016-11-08T08:36:12.477Z,99659
2016-11-08T08:38:10.917Z,99658
2016-11-08T08:40:12.328Z,99659
2016-11-08T08:42:11.956Z,99661
2016-11-08T08:44:11.752Z,99654
2016-11-08T08:46:11.280Z,99657
2016-11-08T08:48:13.282Z,99655
2016-11-08T08:50:12.590Z,99658
2016-11-08T08:52:11.472Z,99658
2016-11-08T08:54:12.059Z,99650
2016-11-08T08:56:15.938Z,99659
2016-11-08T08:58:13.290Z,99657
2016-11-08T09:00:15.610Z,99655
2016-11-08T09:02:13.487Z,99656
2016-11-08T09:04:14.186Z,99662
2016-11-08T09:06:13.063Z,99665
2016-11-08T09:08:13.916Z,99661
2016-11-08T09:10:12.678Z,99663
2016-11-08T09:12:13.588Z,99666
2016-11-08T09:14:14.012Z,99669
2016-11-08T09:16:14.384Z,99671
2016-11-08T09:18:13.124Z,99671
2016-11-08T09:20:16.051Z,99674
2016-11-08T09:22:12.502Z,99672
2016-11-08T09:24:13.327Z,99670
2016-11-08T09:26:12.758Z,99677
2016-11-08T09:28:13.305Z,99672
2016-11-08T09:30:12.870Z,99670
2016-11-08T09:32:14.193Z,99675
2016-11-08T09:34:11.752Z,99673
2016-11-08T09:36:15.879Z,99671
2016-11-08T09:38:14.095Z,99678
2016-11-08T09:40:15.275Z,99680
2016-11-08T09:42:15.137Z,99680
2016-11-08T09:44:13.062Z,99682
2016-11-08T09:46:13.838Z,99686
2016-11-08T09:48:13.355Z,99687
2016-11-08T09:50:14.830Z,99686
2016-11-08T09:52:12.662Z,99686
2016-11-08T09:54:13.489Z,99687
2016-11-08T09:56:12.735Z,99686
2016-11-08T09:58:12.769Z,99690
2016-11-08T10:00:12.863Z,99690
2016-11-08T10:02:14.105Z,99686
2016-11-08T10:06:16.908Z,99690
2016-11-08T10:08:13.689Z,99691
2016-11-08T10:10:14.832Z,99693
2016-11-08T10:12:14.491Z,99692
2016-11-08T10:14:16.973Z,99692
2016-11-08T10:16:15.160Z,99691
2016-11-08T10:18:13.900Z,99692
2016-11-08T10:20:23.503Z,99691
2016-11-08T10:22:16.809Z,99693
2016-11-08T10:24:13.802Z,99692
2016-11-08T10:26:14.539Z,99695
2016-11-08T10:28:17.888Z,99691
2016-11-08T10:30:15.630Z,99692
2016-11-08T10:32:14.850Z,99687
2016-11-08T10:34:12.952Z,99686
2016-11-08T10:36:15.817Z,99686
2016-11-08T10:38:14.967Z,99680
2016-11-08T10:40:17.365Z,99679
2016-11-08T10:42:14.394Z,99674
2016-11-08T10:44:14.527Z,99672
2016-11-08T10:46:18.534Z,99674
2016-11-08T10:48:19.411Z,99679
2016-11-08T10:50:16.903Z,99681
2016-11-08T10:52:18.650Z,99678
2016-11-08T10:54:17.850Z,99681
2016-11-08T10:56:24.274Z,99682
2016-11-08T10:58:30.719Z,99681
2016-11-08T11:02:24.737Z,99683
2016-11-08T11:04:24.972Z,99683
2016-11-08T11:06:19.702Z,99683
2016-11-08T11:08:22.035Z,99683
2016-11-08T11:10:19.496Z,99683
2016-11-08T11:12:22.638Z,99681
2016-11-08T11:14:19.268Z,99678
2016-11-08T11:16:18.039Z,99672
2016-11-08T11:18:17.588Z,99673
2016-11-08T11:20:20.178Z,99665
2016-11-08T11:22:13.952Z,99668
2016-11-08T11:24:15.789Z,99663
2016-11-08T11:26:14.829Z,99663
2016-11-08T11:28:14.746Z,99665
2016-11-08T11:30:16.838Z,99667
2016-11-08T11:32:16.281Z,99667
2016-11-08T11:34:16.377Z,99664
2016-11-08T11:36:18.116Z,99659
2016-11-08T11:38:18.188Z,99664
2016-11-08T11:40:18.271Z,99655
2016-11-08T11:42:16.440Z,99657
2016-11-08T11:44:15.256Z,99654
2016-11-08T11:46:16.713Z,99655
2016-11-08T11:48:15.355Z,99648
2016-11-08T11:50:17.283Z,99645
2016-11-08T11:52:17.427Z,99647
2016-11-08T11:54:14.768Z,99648
2016-11-08T11:56:15.976Z,99650
2016-11-08T11:58:18.884Z,99651
2016-11-08T12:00:15.622Z,99656
2016-11-08T12:02:17.390Z,99669
2016-11-08T12:04:17.564Z,99662
2016-11-08T12:06:18.522Z,99663
2016-11-08T12:08:15.210Z,99663
2016-11-08T12:10:15.919Z,99675
2016-11-08T12:12:15.938Z,99672
2016-11-08T12:14:16.682Z,99669
2016-11-08T12:16:16.736Z,99673
2016-11-08T12:18:17.498Z,99674
2016-11-08T12:20:19.675Z,99669
2016-11-08T12:22:18.757Z,99666
2016-11-08T12:24:16.448Z,99658
2016-11-08T12:26:17.529Z,99667
2016-11-08T12:28:16.618Z,99661
2016-11-08T12:30:17.825Z,99660
2016-11-08T12:32:18.487Z,99660
2016-11-08T12:34:16.670Z,99666
2016-11-08T12:36:17.335Z,99663
2016-11-08T12:38:16.046Z,99663
2016-11-08T12:40:17.420Z,99668
2016-11-08T12:42:16.022Z,99672
2016-11-08T12:44:18.843Z,99667
2016-11-08T12:46:20.607Z,99673
2016-11-08T12:48:19.051Z,99676
2016-11-08T12:50:19.388Z,99670
2016-11-08T12:52:20.369Z,99674
2016-11-08T12:54:19.716Z,99677
2016-11-08T12:56:23.683Z,99673
2016-11-08T12:58:19.741Z,99677
2016-11-08T13:00:21.977Z,99673
2016-11-08T13:02:23.345Z,99674
2016-11-08T13:04:20.468Z,99676
2016-11-08T13:06:22.691Z,99675
2016-11-08T13:08:20.883Z,99676
2016-11-08T13:10:20.038Z,99679
2016-11-08T13:12:18.795Z,99678
2016-11-08T13:14:17.556Z,99676
2016-11-08T13:16:21.298Z,99674
2016-11-08T13:18:20.449Z,99675
2016-11-08T13:20:21.111Z,99680
2016-11-08T13:22:19.201Z,99682
2016-11-08T13:24:23.137Z,99684
2016-11-08T13:26:18.612Z,99685
2016-11-08T13:28:20.430Z,99682
2016-11-08T13:30:18.733Z,99687
2016-11-08T13:32:20.428Z,99682
2016-11-08T13:34:21.889Z,99687
2016-11-08T13:36:21.325Z,99685
2016-11-08T13:38:20.692Z,99686
2016-11-08T13:40:21.417Z,99688
2016-11-08T13:42:19.090Z,99690
2016-11-08T13:44:19.083Z,99691
2016-11-08T13:46:20.433Z,99688
2016-11-08T13:48:20.035Z,99695
2016-11-08T13:50:21.758Z,99692
2016-11-08T13:52:19.233Z,99693
2016-11-08T13:54:19.968Z,99694
2016-11-08T13:56:19.782Z,99698
2016-11-08T13:58:18.043Z,99699
2016-11-08T14:00:18.125Z,99696
2016-11-08T14:02:21.699Z,99700
2016-11-08T14:04:18.907Z,99700
2016-11-08T14:06:21.006Z,99698
2016-11-08T14:08:21.869Z,99696
2016-11-08T14:10:18.378Z,99696
2016-11-08T14:12:18.468Z,99694
2016-11-08T14:14:18.998Z,99688
2016-11-08T14:16:21.142Z,99693
2016-11-08T14:18:18.632Z,99697
2016-11-08T14:20:18.560Z,99700
2016-11-08T14:22:19.342Z,99693
2016-11-08T14:24:20.073Z,99693
2016-11-08T14:26:19.563Z,99697
2016-11-08T14:28:22.209Z,99692
2016-11-08T14:30:19.420Z,99686
2016-11-08T14:32:19.577Z,99687
2016-11-08T14:34:19.066Z,99692
2016-11-08T14:36:20.443Z,99702
2016-11-08T14:38:19.637Z,99698
2016-11-08T14:40:19.202Z,99697
2016-11-08T14:42:19.191Z,99702
